sensor_id;sensor_type;location;lat;lon;timestamp;temperature;humidity
29687;DHT22;16599;47.078;15.536;2023-09-19T00:01:29;17.00;99.90
29687;DHT22;16599;47.078;15.536;2023-09-19T00:04:19;16.90;99.90
29687;DHT22;16599;47.078;15.536;2023-09-19T00:06:50;16.80;99.90
29687;DHT22;16599;47.078;15.536;2023-09-19T00:09:17;16.90;99.90
29687;DHT22;16599;47.078;15.536;2023-09-19T00:11:44;16.90;99.90
29687;DHT22;16599;47.078;15.536;2023-09-19T00:14:12;17.00;99.90
29687;DHT22;16599;47.078;15.536;2023-09-19T00:16:41;16.90;99.90
29687;DHT22;16599;47.078;15.536;2023-09-19T00:19:08;16.90;99.90
29687;DHT22;16599;47.078;15.536;2023-09-19T00:21:35;16.90;99.90
29687;DHT22;16599;47.078;15.536;2023-09-19T00:24:04;16.90;99.90
29687;DHT22;16599;47.078;15.536;2023-09-19T00:30:19;16.90;99.90
29687;DHT22;16599;47.078;15.536;2023-09-19T00:32:47;17.00;99.90
29687;DHT22;16599;47.078;15.536;2023-09-19T00:35:15;16.90;99.90
29687;DHT22;16599;47.078;15.536;2023-09-19T00:37:42;16.90;99.90
29687;DHT22;16599;47.078;15.536;2023-09-19T00:40:10;16.90;99.90
29687;DHT22;16599;47.078;15.536;2023-09-19T00:42:43;17.00;99.90
29687;DHT22;16599;47.078;15.536;2023-09-19T00:45:12;16.90;99.90
29687;DHT22;16599;47.078;15.536;2023-09-19T00:47:42;16.80;99.90
29687;DHT22;16599;47.078;15.536;2023-09-19T00:50:09;16.90;99.90
29687;DHT22;16599;47.078;15.536;2023-09-19T01:04:37;17.00;99.90
29687;DHT22;16599;47.078;15.536;2023-09-19T01:07:19;16.90;99.90
29687;DHT22;16599;47.078;15.536;2023-09-19T01:09:49;16.80;99.90
29687;DHT22;16599;47.078;15.536;2023-09-19T01:12:24;16.90;99.90
29687;DHT22;16599;47.078;15.536;2023-09-19T01:15:00;17.00;99.90
29687;DHT22;16599;47.078;15.536;2023-09-19T01:17:39;17.00;99.90
29687;DHT22;16599;47.078;15.536;2023-09-19T01:21:26;17.00;99.90
29687;DHT22;16599;47.078;15.536;2023-09-19T01:28:09;17.00;99.90
29687;DHT22;16599;47.078;15.536;2023-09-19T01:30:18;17.00;99.90
29687;DHT22;16599;47.078;15.536;2023-09-19T01:32:52;16.90;99.90
29687;DHT22;16599;47.078;15.536;2023-09-19T01:39:19;17.00;99.90
29687;DHT22;16599;47.078;15.536;2023-09-19T01:47:51;16.90;99.90
29687;DHT22;16599;47.078;15.536;2023-09-19T01:50:44;16.80;99.90
29687;DHT22;16599;47.078;15.536;2023-09-19T01:56:38;16.70;99.90
29687;DHT22;16599;47.078;15.536;2023-09-19T01:59:10;16.70;99.90
29687;DHT22;16599;47.078;15.536;2023-09-19T02:01:40;16.70;99.90
29687;DHT22;16599;47.078;15.536;2023-09-19T02:04:08;16.80;99.90
29687;DHT22;16599;47.078;15.536;2023-09-19T02:06:39;16.80;99.90
29687;DHT22;16599;47.078;15.536;2023-09-19T02:09:06;16.90;99.90
29687;DHT22;16599;47.078;15.536;2023-09-19T02:14:52;16.90;99.90
29687;DHT22;16599;47.078;15.536;2023-09-19T02:17:19;16.80;99.90
29687;DHT22;16599;47.078;15.536;2023-09-19T02:19:46;16.80;99.90
29687;DHT22;16599;47.078;15.536;2023-09-19T02:22:16;16.80;99.90
29687;DHT22;16599;47.078;15.536;2023-09-19T02:24:43;16.90;99.90
29687;DHT22;16599;47.078;15.536;2023-09-19T02:27:10;16.90;99.90
29687;DHT22;16599;47.078;15.536;2023-09-19T02:29:39;16.90;99.90
29687;DHT22;16599;47.078;15.536;2023-09-19T02:32:06;16.90;99.90
29687;DHT22;16599;47.078;15.536;2023-09-19T02:34:34;16.90;99.90
29687;DHT22;16599;47.078;15.536;2023-09-19T02:45:07;16.80;99.90
29687;DHT22;16599;47.078;15.536;2023-09-19T02:55:14;16.80;99.90
29687;DHT22;16599;47.078;15.536;2023-09-19T02:57:51;16.70;99.90
29687;DHT22;16599;47.078;15.536;2023-09-19T03:03:39;16.70;99.90
29687;DHT22;16599;47.078;15.536;2023-09-19T03:09:55;16.70;99.90
29687;DHT22;16599;47.078;15.536;2023-09-19T03:12:22;16.60;99.90
29687;DHT22;16599;47.078;15.536;2023-09-19T03:14:49;16.60;99.90
29687;DHT22;16599;47.078;15.536;2023-09-19T03:20:20;16.60;99.90
29687;DHT22;16599;47.078;15.536;2023-09-19T03:22:54;16.60;99.90
29687;DHT22;16599;47.078;15.536;2023-09-19T03:25:21;16.60;99.90
29687;DHT22;16599;47.078;15.536;2023-09-19T03:27:50;16.60;99.90
29687;DHT22;16599;47.078;15.536;2023-09-19T03:30:17;16.50;99.90
29687;DHT22;16599;47.078;15.536;2023-09-19T03:32:45;16.50;99.90
29687;DHT22;16599;47.078;15.536;2023-09-19T03:39:01;16.50;99.90
29687;DHT22;16599;47.078;15.536;2023-09-19T03:41:28;16.50;99.90
29687;DHT22;16599;47.078;15.536;2023-09-19T03:44:15;16.50;99.90
29687;DHT22;16599;47.078;15.536;2023-09-19T03:46:42;16.50;99.90
29687;DHT22;16599;47.078;15.536;2023-09-19T03:49:09;16.50;99.90
29687;DHT22;16599;47.078;15.536;2023-09-19T03:51:37;16.50;99.90
29687;DHT22;16599;47.078;15.536;2023-09-19T03:54:04;16.50;99.90
29687;DHT22;16599;47.078;15.536;2023-09-19T03:56:31;16.60;99.90
29687;DHT22;16599;47.078;15.536;2023-09-19T03:58:58;16.60;99.90
29687;DHT22;16599;47.078;15.536;2023-09-19T04:01:25;16.60;99.90
29687;DHT22;16599;47.078;15.536;2023-09-19T04:04:01;16.60;99.90
29687;DHT22;16599;47.078;15.536;2023-09-19T04:06:35;16.60;99.90
29687;DHT22;16599;47.078;15.536;2023-09-19T04:09:03;16.60;99.90
29687;DHT22;16599;47.078;15.536;2023-09-19T04:11:52;16.60;99.90
29687;DHT22;16599;47.078;15.536;2023-09-19T04:14:19;16.60;99.90
29687;DHT22;16599;47.078;15.536;2023-09-19T04:16:46;16.50;99.90
29687;DHT22;16599;47.078;15.536;2023-09-19T04:23:00;16.40;99.90
29687;DHT22;16599;47.078;15.536;2023-09-19T04:25:27;16.50;99.90
29687;DHT22;16599;47.078;15.536;2023-09-19T04:28:19;16.50;99.90
29687;DHT22;16599;47.078;15.536;2023-09-19T04:30:46;16.40;99.90
29687;DHT22;16599;47.078;15.536;2023-09-19T04:37:02;16.40;99.90
29687;DHT22;16599;47.078;15.536;2023-09-19T04:39:30;16.50;99.90
29687;DHT22;16599;47.078;15.536;2023-09-19T04:41:57;16.50;99.90
29687;DHT22;16599;47.078;15.536;2023-09-19T04:52:05;16.40;99.90
29687;DHT22;16599;47.078;15.536;2023-09-19T04:54:32;16.40;99.90
29687;DHT22;16599;47.078;15.536;2023-09-19T04:57:00;16.40;99.90
29687;DHT22;16599;47.078;15.536;2023-09-19T04:59:27;16.40;99.90
29687;DHT22;16599;47.078;15.536;2023-09-19T05:01:55;16.10;99.90
29687;DHT22;16599;47.078;15.536;2023-09-19T05:04:54;16.10;99.90
29687;DHT22;16599;47.078;15.536;2023-09-19T05:11:09;16.10;99.90
29687;DHT22;16599;47.078;15.536;2023-09-19T05:13:36;16.20;99.90
29687;DHT22;16599;47.078;15.536;2023-09-19T05:16:04;16.20;99.90
29687;DHT22;16599;47.078;15.536;2023-09-19T05:18:30;16.10;99.90
29687;DHT22;16599;47.078;15.536;2023-09-19T05:32:53;16.10;99.90
29687;DHT22;16599;47.078;15.536;2023-09-19T05:46:53;16.00;99.90
29687;DHT22;16599;47.078;15.536;2023-09-19T05:57:37;15.90;99.90
29687;DHT22;16599;47.078;15.536;2023-09-19T06:00:09;15.90;99.90
29687;DHT22;16599;47.078;15.536;2023-09-19T06:02:38;16.00;99.90
29687;DHT22;16599;47.078;15.536;2023-09-19T07:15:04;17.20;99.90
29687;DHT22;16599;47.078;15.536;2023-09-19T07:21:23;17.20;99.90
29687;DHT22;16599;47.078;15.536;2023-09-19T07:23:50;17.30;99.90
29687;DHT22;16599;47.078;15.536;2023-09-19T07:26:19;17.30;99.90
29687;DHT22;16599;47.078;15.536;2023-09-19T07:28:45;17.40;99.90
29687;DHT22;16599;47.078;15.536;2023-09-19T07:31:12;17.40;99.90
29687;DHT22;16599;47.078;15.536;2023-09-19T07:33:40;17.40;99.90
29687;DHT22;16599;47.078;15.536;2023-09-19T07:36:10;17.40;99.90
29687;DHT22;16599;47.078;15.536;2023-09-19T07:38:37;17.50;99.90
29687;DHT22;16599;47.078;15.536;2023-09-19T07:41:04;17.50;99.90
29687;DHT22;16599;47.078;15.536;2023-09-19T07:43:32;17.50;99.90
29687;DHT22;16599;47.078;15.536;2023-09-19T07:46:04;17.50;99.90
29687;DHT22;16599;47.078;15.536;2023-09-19T07:48:34;17.60;99.90
29687;DHT22;16599;47.078;15.536;2023-09-19T07:51:06;17.50;99.90
29687;DHT22;16599;47.078;15.536;2023-09-19T07:53:34;17.50;99.90
29687;DHT22;16599;47.078;15.536;2023-09-19T07:56:05;17.50;99.90
29687;DHT22;16599;47.078;15.536;2023-09-19T07:58:33;17.50;99.90
29687;DHT22;16599;47.078;15.536;2023-09-19T08:01:08;17.60;99.90
29687;DHT22;16599;47.078;15.536;2023-09-19T08:03:36;17.50;99.90
29687;DHT22;16599;47.078;15.536;2023-09-19T08:06:08;17.60;99.90
29687;DHT22;16599;47.078;15.536;2023-09-19T08:08:35;17.90;99.90
29687;DHT22;16599;47.078;15.536;2023-09-19T08:11:06;18.00;99.90
29687;DHT22;16599;47.078;15.536;2023-09-19T08:13:41;18.10;99.90
29687;DHT22;16599;47.078;15.536;2023-09-19T08:16:10;18.20;99.90
29687;DHT22;16599;47.078;15.536;2023-09-19T08:18:38;18.30;99.90
29687;DHT22;16599;47.078;15.536;2023-09-19T08:21:07;18.30;99.90
29687;DHT22;16599;47.078;15.536;2023-09-19T08:23:37;18.30;99.90
29687;DHT22;16599;47.078;15.536;2023-09-19T08:26:08;18.50;99.90
29687;DHT22;16599;47.078;15.536;2023-09-19T08:28:36;18.70;99.90
29687;DHT22;16599;47.078;15.536;2023-09-19T08:31:04;18.80;99.90
29687;DHT22;16599;47.078;15.536;2023-09-19T08:33:34;18.80;99.90
29687;DHT22;16599;47.078;15.536;2023-09-19T08:36:03;18.90;99.90
29687;DHT22;16599;47.078;15.536;2023-09-19T08:38:35;18.90;99.90
29687;DHT22;16599;47.078;15.536;2023-09-19T08:41:06;18.70;99.90
29687;DHT22;16599;47.078;15.536;2023-09-19T08:43:34;18.80;99.90
29687;DHT22;16599;47.078;15.536;2023-09-19T08:48:32;19.10;99.90
29687;DHT22;16599;47.078;15.536;2023-09-19T08:51:30;19.10;99.90
29687;DHT22;16599;47.078;15.536;2023-09-19T08:56:46;19.30;99.90
29687;DHT22;16599;47.078;15.536;2023-09-19T08:59:14;19.50;99.90
29687;DHT22;16599;47.078;15.536;2023-09-19T09:01:42;19.70;99.90
29687;DHT22;16599;47.078;15.536;2023-09-19T09:04:09;19.70;99.90
29687;DHT22;16599;47.078;15.536;2023-09-19T09:06:41;19.80;99.90
29687;DHT22;16599;47.078;15.536;2023-09-19T09:09:10;19.90;99.90
29687;DHT22;16599;47.078;15.536;2023-09-19T09:11:38;20.00;99.90
29687;DHT22;16599;47.078;15.536;2023-09-19T09:14:07;20.10;99.90
29687;DHT22;16599;47.078;15.536;2023-09-19T09:16:39;20.30;99.90
29687;DHT22;16599;47.078;15.536;2023-09-19T09:19:06;20.40;99.90
29687;DHT22;16599;47.078;15.536;2023-09-19T09:21:33;20.50;99.90
29687;DHT22;16599;47.078;15.536;2023-09-19T09:24:30;20.60;99.90
29687;DHT22;16599;47.078;15.536;2023-09-19T09:27:03;20.60;99.60
29687;DHT22;16599;47.078;15.536;2023-09-19T09:29:47;20.40;99.90
29687;DHT22;16599;47.078;15.536;2023-09-19T09:35:21;20.40;99.90
29687;DHT22;16599;47.078;15.536;2023-09-19T09:37:59;20.40;99.90
29687;DHT22;16599;47.078;15.536;2023-09-19T09:40:46;20.30;99.90
29687;DHT22;16599;47.078;15.536;2023-09-19T09:43:25;20.30;99.60
29687;DHT22;16599;47.078;15.536;2023-09-19T09:46:14;20.40;98.80
29687;DHT22;16599;47.078;15.536;2023-09-19T09:49:01;20.40;99.90
29687;DHT22;16599;47.078;15.536;2023-09-19T09:52:04;20.50;99.90
29687;DHT22;16599;47.078;15.536;2023-09-19T09:54:38;20.50;99.90
29687;DHT22;16599;47.078;15.536;2023-09-19T09:57:09;20.50;99.90
29687;DHT22;16599;47.078;15.536;2023-09-19T10:02:30;20.40;99.90
29687;DHT22;16599;47.078;15.536;2023-09-19T10:05:23;20.40;99.90
29687;DHT22;16599;47.078;15.536;2023-09-19T10:07:54;20.40;99.90
29687;DHT22;16599;47.078;15.536;2023-09-19T10:10:39;20.30;99.90
29687;DHT22;16599;47.078;15.536;2023-09-19T10:13:10;20.10;99.90
29687;DHT22;16599;47.078;15.536;2023-09-19T10:15:48;20.20;99.90
29687;DHT22;16599;47.078;15.536;2023-09-19T10:18:23;20.30;99.90
29687;DHT22;16599;47.078;15.536;2023-09-19T10:20:51;20.50;99.90
29687;DHT22;16599;47.078;15.536;2023-09-19T10:23:20;20.40;99.90
29687;DHT22;16599;47.078;15.536;2023-09-19T10:25:50;20.40;99.90
29687;DHT22;16599;47.078;15.536;2023-09-19T10:28:20;20.40;99.90
29687;DHT22;16599;47.078;15.536;2023-09-19T10:30:53;20.60;99.90
29687;DHT22;16599;47.078;15.536;2023-09-19T10:33:24;20.70;99.90
29687;DHT22;16599;47.078;15.536;2023-09-19T10:35:59;20.90;99.90
29687;DHT22;16599;47.078;15.536;2023-09-19T10:38:28;21.20;99.90
29687;DHT22;16599;47.078;15.536;2023-09-19T10:40:57;21.30;99.90
29687;DHT22;16599;47.078;15.536;2023-09-19T10:43:32;21.50;99.90
29687;DHT22;16599;47.078;15.536;2023-09-19T10:46:06;21.70;99.90
29687;DHT22;16599;47.078;15.536;2023-09-19T10:48:40;21.70;99.90
29687;DHT22;16599;47.078;15.536;2023-09-19T10:51:14;21.80;99.80
29687;DHT22;16599;47.078;15.536;2023-09-19T10:53:46;22.10;99.70
29687;DHT22;16599;47.078;15.536;2023-09-19T10:56:35;22.10;98.20
29687;DHT22;16599;47.078;15.536;2023-09-19T10:59:09;22.00;98.60
29687;DHT22;16599;47.078;15.536;2023-09-19T11:04:34;21.80;96.40
29687;DHT22;16599;47.078;15.536;2023-09-19T11:07:10;21.90;95.40
29687;DHT22;16599;47.078;15.536;2023-09-19T11:14:58;22.10;95.80
29687;DHT22;16599;47.078;15.536;2023-09-19T11:27:13;22.40;94.10
29687;DHT22;16599;47.078;15.536;2023-09-19T11:29:41;22.20;94.00
29687;DHT22;16599;47.078;15.536;2023-09-19T11:32:08;22.40;93.40
29687;DHT22;16599;47.078;15.536;2023-09-19T11:39:38;22.60;92.40
29687;DHT22;16599;47.078;15.536;2023-09-19T11:48:24;22.70;93.40
29687;DHT22;16599;47.078;15.536;2023-09-19T11:50:54;22.60;90.30
29687;DHT22;16599;47.078;15.536;2023-09-19T11:53:23;22.60;90.80
29687;DHT22;16599;47.078;15.536;2023-09-19T11:55:51;22.50;91.20
29687;DHT22;16599;47.078;15.536;2023-09-19T11:58:19;22.50;91.10
29687;DHT22;16599;47.078;15.536;2023-09-19T12:00:54;22.50;91.10
29687;DHT22;16599;47.078;15.536;2023-09-19T12:03:29;22.60;90.70
29687;DHT22;16599;47.078;15.536;2023-09-19T12:05:58;22.60;91.30
29687;DHT22;16599;47.078;15.536;2023-09-19T12:08:25;22.70;91.90
29687;DHT22;16599;47.078;15.536;2023-09-19T12:10:54;23.00;90.20
29687;DHT22;16599;47.078;15.536;2023-09-19T12:13:22;22.90;89.80
29687;DHT22;16599;47.078;15.536;2023-09-19T12:15:50;23.00;88.50
29687;DHT22;16599;47.078;15.536;2023-09-19T12:18:27;23.00;89.90
29687;DHT22;16599;47.078;15.536;2023-09-19T12:20:55;23.20;88.20
29687;DHT22;16599;47.078;15.536;2023-09-19T12:23:24;23.20;87.20
29687;DHT22;16599;47.078;15.536;2023-09-19T12:25:54;22.90;88.10
29687;DHT22;16599;47.078;15.536;2023-09-19T12:28:27;23.20;90.20
29687;DHT22;16599;47.078;15.536;2023-09-19T12:31:08;23.70;88.40
29687;DHT22;16599;47.078;15.536;2023-09-19T12:33:35;23.50;84.50
29687;DHT22;16599;47.078;15.536;2023-09-19T12:36:21;23.60;87.90
29687;DHT22;16599;47.078;15.536;2023-09-19T12:38:58;23.80;85.30
29687;DHT22;16599;47.078;15.536;2023-09-19T12:41:26;23.80;85.40
29687;DHT22;16599;47.078;15.536;2023-09-19T12:43:53;23.90;84.10
29687;DHT22;16599;47.078;15.536;2023-09-19T12:46:21;23.80;83.60
29687;DHT22;16599;47.078;15.536;2023-09-19T12:49:15;23.80;83.70
29687;DHT22;16599;47.078;15.536;2023-09-19T12:51:44;23.50;81.10
29687;DHT22;16599;47.078;15.536;2023-09-19T12:54:12;23.30;81.20
29687;DHT22;16599;47.078;15.536;2023-09-19T12:56:43;23.10;84.90
29687;DHT22;16599;47.078;15.536;2023-09-19T12:59:15;23.40;85.10
29687;DHT22;16599;47.078;15.536;2023-09-19T13:01:43;23.90;82.20
29687;DHT22;16599;47.078;15.536;2023-09-19T13:06:48;24.60;80.90
29687;DHT22;16599;47.078;15.536;2023-09-19T13:09:20;24.70;78.30
29687;DHT22;16599;47.078;15.536;2023-09-19T13:11:48;24.30;77.70
29687;DHT22;16599;47.078;15.536;2023-09-19T13:14:25;24.10;79.10
29687;DHT22;16599;47.078;15.536;2023-09-19T13:16:55;24.00;80.30
29687;DHT22;16599;47.078;15.536;2023-09-19T13:19:42;23.80;78.40
29687;DHT22;16599;47.078;15.536;2023-09-19T13:22:42;23.60;80.10
29687;DHT22;16599;47.078;15.536;2023-09-19T13:25:35;23.30;84.70
29687;DHT22;16599;47.078;15.536;2023-09-19T13:28:05;23.00;81.40
29687;DHT22;16599;47.078;15.536;2023-09-19T13:30:32;22.70;89.70
29687;DHT22;16599;47.078;15.536;2023-09-19T13:33:11;22.40;91.00
29687;DHT22;16599;47.078;15.536;2023-09-19T13:35:38;22.30;91.60
29687;DHT22;16599;47.078;15.536;2023-09-19T13:38:08;22.10;93.40
29687;DHT22;16599;47.078;15.536;2023-09-19T13:40:39;22.00;93.60
29687;DHT22;16599;47.078;15.536;2023-09-19T13:43:15;21.90;93.30
29687;DHT22;16599;47.078;15.536;2023-09-19T13:45:43;21.80;94.70
29687;DHT22;16599;47.078;15.536;2023-09-19T13:48:10;21.80;94.00
29687;DHT22;16599;47.078;15.536;2023-09-19T13:50:43;21.70;94.30
29687;DHT22;16599;47.078;15.536;2023-09-19T13:53:10;22.20;94.00
29687;DHT22;16599;47.078;15.536;2023-09-19T13:55:38;22.60;93.20
29687;DHT22;16599;47.078;15.536;2023-09-19T13:58:05;23.10;90.40
29687;DHT22;16599;47.078;15.536;2023-09-19T14:00:33;23.40;88.90
29687;DHT22;16599;47.078;15.536;2023-09-19T14:03:03;23.70;88.70
29687;DHT22;16599;47.078;15.536;2023-09-19T14:05:31;23.90;90.40
29687;DHT22;16599;47.078;15.536;2023-09-19T14:07:58;24.00;85.60
29687;DHT22;16599;47.078;15.536;2023-09-19T14:10:26;23.50;85.80
29687;DHT22;16599;47.078;15.536;2023-09-19T14:12:54;22.90;87.10
29687;DHT22;16599;47.078;15.536;2023-09-19T14:15:21;22.70;89.70
29687;DHT22;16599;47.078;15.536;2023-09-19T14:17:59;22.90;89.50
29687;DHT22;16599;47.078;15.536;2023-09-19T14:20:27;23.00;90.20
29687;DHT22;16599;47.078;15.536;2023-09-19T14:22:56;23.00;90.20
29687;DHT22;16599;47.078;15.536;2023-09-19T14:25:25;22.90;90.30
29687;DHT22;16599;47.078;15.536;2023-09-19T14:27:52;22.80;92.50
29687;DHT22;16599;47.078;15.536;2023-09-19T14:30:19;22.60;91.00
29687;DHT22;16599;47.078;15.536;2023-09-19T14:32:46;22.70;91.80
29687;DHT22;16599;47.078;15.536;2023-09-19T14:35:12;22.80;93.70
29687;DHT22;16599;47.078;15.536;2023-09-19T14:37:40;22.70;91.70
29687;DHT22;16599;47.078;15.536;2023-09-19T14:40:08;22.50;92.70
29687;DHT22;16599;47.078;15.536;2023-09-19T14:42:38;22.60;93.80
29687;DHT22;16599;47.078;15.536;2023-09-19T14:45:05;22.60;96.70
29687;DHT22;16599;47.078;15.536;2023-09-19T14:47:33;22.10;93.60
29687;DHT22;16599;47.078;15.536;2023-09-19T14:50:04;21.90;94.60
29687;DHT22;16599;47.078;15.536;2023-09-19T14:52:34;22.00;95.70
29687;DHT22;16599;47.078;15.536;2023-09-19T14:55:02;21.70;95.00
29687;DHT22;16599;47.078;15.536;2023-09-19T14:57:31;21.70;97.00
29687;DHT22;16599;47.078;15.536;2023-09-19T14:59:58;21.60;96.00
29687;DHT22;16599;47.078;15.536;2023-09-19T15:02:52;21.50;97.00
29687;DHT22;16599;47.078;15.536;2023-09-19T15:05:20;21.50;97.80
29687;DHT22;16599;47.078;15.536;2023-09-19T15:07:47;21.40;99.80
29687;DHT22;16599;47.078;15.536;2023-09-19T15:10:14;21.40;99.90
29687;DHT22;16599;47.078;15.536;2023-09-19T15:12:42;21.10;99.90
29687;DHT22;16599;47.078;15.536;2023-09-19T15:15:12;21.10;99.30
29687;DHT22;16599;47.078;15.536;2023-09-19T15:17:40;21.10;99.80
29687;DHT22;16599;47.078;15.536;2023-09-19T15:20:08;21.10;98.80
29687;DHT22;16599;47.078;15.536;2023-09-19T15:22:36;21.00;97.10
29687;DHT22;16599;47.078;15.536;2023-09-19T15:25:03;20.90;99.20
29687;DHT22;16599;47.078;15.536;2023-09-19T15:27:30;20.90;99.90
29687;DHT22;16599;47.078;15.536;2023-09-19T15:29:59;20.70;99.90
29687;DHT22;16599;47.078;15.536;2023-09-19T15:32:26;20.60;99.90
29687;DHT22;16599;47.078;15.536;2023-09-19T15:34:53;20.30;99.90
29687;DHT22;16599;47.078;15.536;2023-09-19T15:37:20;20.30;99.90
29687;DHT22;16599;47.078;15.536;2023-09-19T15:39:47;20.20;99.90
29687;DHT22;16599;47.078;15.536;2023-09-19T15:42:14;20.20;99.90
29687;DHT22;16599;47.078;15.536;2023-09-19T15:44:42;20.10;99.90
29687;DHT22;16599;47.078;15.536;2023-09-19T15:47:11;20.10;99.90
29687;DHT22;16599;47.078;15.536;2023-09-19T15:49:38;20.10;99.90
29687;DHT22;16599;47.078;15.536;2023-09-19T15:52:05;20.10;99.90
29687;DHT22;16599;47.078;15.536;2023-09-19T15:54:32;20.20;99.90
29687;DHT22;16599;47.078;15.536;2023-09-19T15:56:59;20.30;99.90
29687;DHT22;16599;47.078;15.536;2023-09-19T15:59:26;20.30;99.90
29687;DHT22;16599;47.078;15.536;2023-09-19T16:01:53;20.40;99.90
29687;DHT22;16599;47.078;15.536;2023-09-19T16:04:20;20.20;99.90
29687;DHT22;16599;47.078;15.536;2023-09-19T16:06:47;20.10;99.90
29687;DHT22;16599;47.078;15.536;2023-09-19T16:09:14;20.10;99.90
29687;DHT22;16599;47.078;15.536;2023-09-19T16:11:41;20.10;99.90
29687;DHT22;16599;47.078;15.536;2023-09-19T16:14:08;20.00;99.90
29687;DHT22;16599;47.078;15.536;2023-09-19T16:16:37;19.80;99.90
29687;DHT22;16599;47.078;15.536;2023-09-19T16:19:05;19.60;99.90
29687;DHT22;16599;47.078;15.536;2023-09-19T16:21:37;19.40;99.90
29687;DHT22;16599;47.078;15.536;2023-09-19T16:24:07;19.50;99.90
29687;DHT22;16599;47.078;15.536;2023-09-19T16:26:36;19.50;99.90
29687;DHT22;16599;47.078;15.536;2023-09-19T16:29:04;19.40;99.90
29687;DHT22;16599;47.078;15.536;2023-09-19T16:31:31;19.30;99.90
29687;DHT22;16599;47.078;15.536;2023-09-19T16:34:00;19.40;99.90
29687;DHT22;16599;47.078;15.536;2023-09-19T16:36:27;19.50;99.90
29687;DHT22;16599;47.078;15.536;2023-09-19T16:38:54;19.30;99.90
29687;DHT22;16599;47.078;15.536;2023-09-19T16:41:21;19.00;99.90
29687;DHT22;16599;47.078;15.536;2023-09-19T16:43:48;18.80;99.90
29687;DHT22;16599;47.078;15.536;2023-09-19T16:46:16;18.40;99.90
29687;DHT22;16599;47.078;15.536;2023-09-19T16:48:45;18.20;99.90
29687;DHT22;16599;47.078;15.536;2023-09-19T16:51:29;18.00;99.90
29687;DHT22;16599;47.078;15.536;2023-09-19T16:53:56;17.80;99.90
29687;DHT22;16599;47.078;15.536;2023-09-19T16:56:23;17.60;99.90
29687;DHT22;16599;47.078;15.536;2023-09-19T16:58:50;17.30;99.90
29687;DHT22;16599;47.078;15.536;2023-09-19T17:01:19;17.50;99.90
29687;DHT22;16599;47.078;15.536;2023-09-19T17:03:48;17.60;99.90
29687;DHT22;16599;47.078;15.536;2023-09-19T17:06:17;17.60;99.90
29687;DHT22;16599;47.078;15.536;2023-09-19T17:08:46;17.50;99.90
29687;DHT22;16599;47.078;15.536;2023-09-19T17:11:17;17.30;99.90
29687;DHT22;16599;47.078;15.536;2023-09-19T17:13:46;17.00;99.90
29687;DHT22;16599;47.078;15.536;2023-09-19T17:16:16;16.80;99.90
29687;DHT22;16599;47.078;15.536;2023-09-19T17:18:53;16.80;99.90
29687;DHT22;16599;47.078;15.536;2023-09-19T17:21:21;16.70;99.90
29687;DHT22;16599;47.078;15.536;2023-09-19T17:23:48;16.60;99.90
29687;DHT22;16599;47.078;15.536;2023-09-19T17:26:16;16.50;99.90
29687;DHT22;16599;47.078;15.536;2023-09-19T17:28:48;16.50;99.90
29687;DHT22;16599;47.078;15.536;2023-09-19T17:31:20;16.60;99.90
29687;DHT22;16599;47.078;15.536;2023-09-19T17:33:52;16.80;99.90
29687;DHT22;16599;47.078;15.536;2023-09-19T17:36:26;16.80;99.90
29687;DHT22;16599;47.078;15.536;2023-09-19T17:38:58;16.70;99.90
29687;DHT22;16599;47.078;15.536;2023-09-19T17:41:26;16.50;99.90
29687;DHT22;16599;47.078;15.536;2023-09-19T17:43:55;16.20;99.90
29687;DHT22;16599;47.078;15.536;2023-09-19T17:46:23;16.30;99.90
29687;DHT22;16599;47.078;15.536;2023-09-19T17:48:54;16.50;99.90
29687;DHT22;16599;47.078;15.536;2023-09-19T17:51:22;16.40;99.90
29687;DHT22;16599;47.078;15.536;2023-09-19T17:53:49;16.20;99.90
29687;DHT22;16599;47.078;15.536;2023-09-19T17:56:16;16.30;99.90
29687;DHT22;16599;47.078;15.536;2023-09-19T17:58:45;16.20;99.90
29687;DHT22;16599;47.078;15.536;2023-09-19T18:01:17;16.00;99.90
29687;DHT22;16599;47.078;15.536;2023-09-19T18:03:49;15.90;99.90
29687;DHT22;16599;47.078;15.536;2023-09-19T18:06:35;15.90;99.90
29687;DHT22;16599;47.078;15.536;2023-09-19T18:09:06;15.90;99.90
29687;DHT22;16599;47.078;15.536;2023-09-19T18:11:34;16.00;99.90
29687;DHT22;16599;47.078;15.536;2023-09-19T18:14:01;16.10;99.90
29687;DHT22;16599;47.078;15.536;2023-09-19T18:16:28;16.10;99.90
29687;DHT22;16599;47.078;15.536;2023-09-19T18:18:59;15.90;99.90
29687;DHT22;16599;47.078;15.536;2023-09-19T18:21:27;16.10;99.90
29687;DHT22;16599;47.078;15.536;2023-09-19T18:23:55;16.20;99.90
29687;DHT22;16599;47.078;15.536;2023-09-19T18:26:44;16.10;99.90
29687;DHT22;16599;47.078;15.536;2023-09-19T18:29:11;15.80;99.90
29687;DHT22;16599;47.078;15.536;2023-09-19T18:31:38;15.60;99.90
29687;DHT22;16599;47.078;15.536;2023-09-19T18:34:05;15.50;99.90
29687;DHT22;16599;47.078;15.536;2023-09-19T18:36:36;15.60;99.90
29687;DHT22;16599;47.078;15.536;2023-09-19T18:39:04;15.70;99.90
29687;DHT22;16599;47.078;15.536;2023-09-19T18:41:31;15.50;99.90
29687;DHT22;16599;47.078;15.536;2023-09-19T18:44:03;15.40;99.90
29687;DHT22;16599;47.078;15.536;2023-09-19T18:46:30;15.50;99.90
29687;DHT22;16599;47.078;15.536;2023-09-19T18:48:57;15.50;99.90
29687;DHT22;16599;47.078;15.536;2023-09-19T18:51:24;15.60;99.90
29687;DHT22;16599;47.078;15.536;2023-09-19T18:53:52;15.80;99.90
29687;DHT22;16599;47.078;15.536;2023-09-19T18:56:39;15.80;99.90
29687;DHT22;16599;47.078;15.536;2023-09-19T18:59:08;16.00;99.90
29687;DHT22;16599;47.078;15.536;2023-09-19T19:01:35;15.90;99.90
29687;DHT22;16599;47.078;15.536;2023-09-19T19:04:02;15.60;99.90
29687;DHT22;16599;47.078;15.536;2023-09-19T19:06:29;15.20;99.90
29687;DHT22;16599;47.078;15.536;2023-09-19T19:08:58;15.00;99.90
29687;DHT22;16599;47.078;15.536;2023-09-19T19:11:25;15.20;99.90
29687;DHT22;16599;47.078;15.536;2023-09-19T19:13:55;15.20;99.90
29687;DHT22;16599;47.078;15.536;2023-09-19T19:16:22;15.10;99.90
29687;DHT22;16599;47.078;15.536;2023-09-19T19:18:53;15.10;99.90
29687;DHT22;16599;47.078;15.536;2023-09-19T19:21:20;15.20;99.90
29687;DHT22;16599;47.078;15.536;2023-09-19T19:23:49;15.10;99.90
29687;DHT22;16599;47.078;15.536;2023-09-19T19:26:16;15.10;99.90
29687;DHT22;16599;47.078;15.536;2023-09-19T19:28:44;15.20;99.90
29687;DHT22;16599;47.078;15.536;2023-09-19T19:31:12;15.20;99.90